createdAt,value
2018-07-26T00:00:32.871Z,793.00
2018-07-26T00:01:33.639Z,795.00
2018-07-26T00:02:34.413Z,793.00
2018-07-26T00:03:35.225Z,793.00
2018-07-26T00:04:36.000Z,794.00
2018-07-26T00:05:36.773Z,793.00
2018-07-26T00:06:37.549Z,795.00
2018-07-26T00:07:38.325Z,793.00
2018-07-26T00:08:39.133Z,794.00
2018-07-26T00:09:39.912Z,793.00
2018-07-26T00:10:40.686Z,794.00
2018-07-26T00:11:41.462Z,795.00
2018-07-26T00:12:42.237Z,794.00
2018-07-26T00:13:43.043Z,794.00
2018-07-26T00:14:43.827Z,789.00
2018-07-26T00:15:44.603Z,794.00
2018-07-26T00:16:45.391Z,792.00
2018-07-26T00:17:46.155Z,793.00
2018-07-26T00:18:46.966Z,786.00
2018-07-26T00:19:47.738Z,798.00
2018-07-26T00:20:48.513Z,793.00
2018-07-26T00:21:49.289Z,795.00
2018-07-26T00:22:50.068Z,794.00
2018-07-26T00:23:50.871Z,795.00
2018-07-26T00:24:51.649Z,797.00
2018-07-26T00:25:52.424Z,794.00
2018-07-26T00:26:53.200Z,796.00
2018-07-26T00:27:53.984Z,797.00
2018-07-26T00:28:54.792Z,797.00
2018-07-26T00:29:55.563Z,801.00
2018-07-26T00:30:56.347Z,799.00
2018-07-26T00:31:57.111Z,797.00
2018-07-26T00:32:57.900Z,796.00
2018-07-26T00:33:58.705Z,797.00
2018-07-26T00:34:59.476Z,790.00
2018-07-26T00:36:00.252Z,796.00
2018-07-26T00:37:01.030Z,792.00
2018-07-26T00:38:01.818Z,796.00
2018-07-26T00:39:02.610Z,792.00
2018-07-26T00:40:03.391Z,797.00
2018-07-26T00:41:04.164Z,795.00
2018-07-26T00:42:04.941Z,796.00
2018-07-26T00:43:04.717Z,798.00
2018-07-26T00:44:06.528Z,797.00
2018-07-26T00:45:07.726Z,798.00
2018-07-26T00:46:15.166Z,800.00
2018-07-26T00:47:15.939Z,796.00
2018-07-26T00:48:16.722Z,796.00
2018-07-26T00:49:17.525Z,797.00
2018-07-26T00:50:18.316Z,798.00
2018-07-26T00:51:19.096Z,795.00
2018-07-26T00:52:18.852Z,797.00
2018-07-26T00:53:20.626Z,794.00
2018-07-26T00:54:21.431Z,797.00
2018-07-26T00:55:22.207Z,796.00
2018-07-26T00:56:22.981Z,795.00
2018-07-26T00:57:23.759Z,794.00
2018-07-26T00:58:24.530Z,795.00
2018-07-26T00:59:25.354Z,795.00
2018-07-26T01:00:26.109Z,798.00
2018-07-26T01:01:26.890Z,794.00
2018-07-26T01:02:27.657Z,794.00
2018-07-26T01:03:28.435Z,794.00
2018-07-26T01:04:29.241Z,795.00
2018-07-26T01:05:30.023Z,797.00
2018-07-26T01:06:30.802Z,793.00
2018-07-26T01:07:31.569Z,795.00
2018-07-26T01:08:32.347Z,795.00
2018-07-26T01:09:33.256Z,797.00
2018-07-26T01:10:32.943Z,797.00
2018-07-26T01:11:34.724Z,795.00
2018-07-26T01:12:35.499Z,795.00
2018-07-26T01:13:36.273Z,795.00
2018-07-26T01:14:37.076Z,793.00
2018-07-26T01:15:37.851Z,797.00
2018-07-26T01:16:38.710Z,794.00
2018-07-26T01:17:38.426Z,795.00
2018-07-26T01:18:40.201Z,795.00
2018-07-26T01:19:41.012Z,794.00
2018-07-26T01:20:41.785Z,799.00
2018-07-26T01:21:42.568Z,796.00
2018-07-26T01:22:43.332Z,799.00
2018-07-26T01:23:44.109Z,798.00
2018-07-26T01:24:44.908Z,797.00
2018-07-26T01:25:45.689Z,799.00
2018-07-26T01:26:46.460Z,797.00
2018-07-26T01:27:47.239Z,795.00
2018-07-26T01:28:48.013Z,795.00
2018-07-26T01:29:48.822Z,797.00
2018-07-26T01:30:49.597Z,798.00
2018-07-26T01:31:50.369Z,797.00
2018-07-26T01:32:51.177Z,796.00
2018-07-26T01:33:51.927Z,796.00
2018-07-26T01:34:52.741Z,796.00
2018-07-26T01:35:53.510Z,798.00
2018-07-26T01:36:54.286Z,796.00
2018-07-26T01:37:55.064Z,799.00
2018-07-26T01:38:55.845Z,796.00
2018-07-26T01:39:56.649Z,797.00
2018-07-26T01:40:57.425Z,798.00
2018-07-26T01:41:58.289Z,797.00
2018-07-26T01:42:57.990Z,798.00
2018-07-26T01:43:59.775Z,795.00
2018-07-26T01:45:00.578Z,797.00
2018-07-26T01:46:01.351Z,797.00
2018-07-26T01:47:02.130Z,794.00
2018-07-26T01:48:02.916Z,796.00
2018-07-26T01:49:03.678Z,797.00
2018-07-26T01:50:04.489Z,797.00
2018-07-26T01:51:05.261Z,799.00
2018-07-26T01:52:06.045Z,797.00
2018-07-26T01:53:06.851Z,797.00
2018-07-26T01:54:07.604Z,797.00
2018-07-26T01:55:08.416Z,796.00
2018-07-26T01:56:09.183Z,800.00
2018-07-26T01:57:09.968Z,797.00
2018-07-26T01:58:09.739Z,797.00
2018-07-26T01:59:11.514Z,797.00
2018-07-26T02:00:13.330Z,797.00
2018-07-26T02:01:13.106Z,799.00
2018-07-26T02:02:13.880Z,798.00
2018-07-26T02:03:14.655Z,796.00
2018-07-26T02:04:15.429Z,798.00
2018-07-26T02:05:16.240Z,797.00
2018-07-26T02:06:17.014Z,797.00
2018-07-26T02:07:17.790Z,796.00
2018-07-26T02:08:18.566Z,795.00
2018-07-26T02:09:19.345Z,797.00
2018-07-26T02:10:20.152Z,795.00
2018-07-26T02:11:20.939Z,800.00
2018-07-26T02:12:21.716Z,799.00
2018-07-26T02:13:22.485Z,800.00
2018-07-26T02:14:23.281Z,798.00
2018-07-26T02:15:24.066Z,798.00
2018-07-26T02:16:24.842Z,799.00
2018-07-26T02:17:25.645Z,800.00
2018-07-26T02:18:26.404Z,802.00
2018-07-26T02:19:27.179Z,797.00
2018-07-26T02:20:27.984Z,798.00
2018-07-26T02:21:28.765Z,800.00
2018-07-26T02:22:29.537Z,802.00
2018-07-26T02:23:30.317Z,804.00
2018-07-26T02:24:31.092Z,801.00
2018-07-26T02:25:31.894Z,799.00
2018-07-26T02:26:32.673Z,796.00
2018-07-26T02:27:33.445Z,799.00
2018-07-26T02:28:34.220Z,797.00
2018-07-26T02:29:35.001Z,799.00
2018-07-26T02:30:35.814Z,796.00
2018-07-26T02:31:36.593Z,801.00
2018-07-26T02:32:37.362Z,799.00
2018-07-26T02:33:38.141Z,800.00
2018-07-26T02:34:38.912Z,798.00
2018-07-26T02:35:39.717Z,798.00
2018-07-26T02:36:40.565Z,802.00
2018-07-26T02:37:40.268Z,799.00
2018-07-26T02:38:42.480Z,799.00
2018-07-26T02:41:46.982Z,805.00
2018-07-26T02:42:47.755Z,801.00
2018-07-26T02:43:48.531Z,800.00
2018-07-26T02:44:49.337Z,800.00
2018-07-26T02:45:50.106Z,800.00
2018-07-26T02:46:50.877Z,802.00
2018-07-26T02:47:51.655Z,801.00
2018-07-26T02:48:52.429Z,804.00
2018-07-26T02:49:53.229Z,802.00
2018-07-26T02:50:54.005Z,802.00
2018-07-26T02:51:54.782Z,802.00
2018-07-26T02:52:55.557Z,804.00
2018-07-26T02:53:56.333Z,802.00
2018-07-26T02:54:57.157Z,802.00
2018-07-26T02:55:57.929Z,804.00
2018-07-26T02:56:58.705Z,806.00
2018-07-26T02:57:59.477Z,804.00
2018-07-26T02:59:00.253Z,804.00
2018-07-26T03:00:01.057Z,804.00
2018-07-26T03:01:01.829Z,802.00
2018-07-26T03:02:02.611Z,798.00
2018-07-26T03:03:04.385Z,802.00
2018-07-26T03:04:04.161Z,804.00
2018-07-26T03:05:05.416Z,802.00
2018-07-26T03:06:05.178Z,805.00
2018-07-26T03:07:06.046Z,805.00
2018-07-26T03:08:05.732Z,805.00
2018-07-26T03:09:07.515Z,804.00
2018-07-26T03:10:08.320Z,804.00
2018-07-26T03:11:09.084Z,805.00
2018-07-26T03:12:09.856Z,804.00
2018-07-26T03:13:10.640Z,805.00
2018-07-26T03:14:11.419Z,802.00
2018-07-26T03:15:12.217Z,804.00
2018-07-26T03:16:12.991Z,802.00
2018-07-26T03:17:13.768Z,802.00
2018-07-26T03:18:14.543Z,804.00
2018-07-26T03:19:15.319Z,802.00
2018-07-26T03:20:16.131Z,805.00
2018-07-26T03:21:16.908Z,802.00
2018-07-26T03:22:17.769Z,800.00
2018-07-26T03:23:17.470Z,804.00
2018-07-26T03:24:19.244Z,804.00
2018-07-26T03:25:20.688Z,804.00
2018-07-26T03:26:20.467Z,805.00
2018-07-26T03:27:21.250Z,804.00
2018-07-26T03:28:22.035Z,804.00
2018-07-26T03:29:22.799Z,804.00
2018-07-26T03:30:23.613Z,802.00
2018-07-26T03:31:24.384Z,804.00
2018-07-26T03:32:25.158Z,804.00
2018-07-26T03:33:25.929Z,804.00
2018-07-26T03:34:26.707Z,804.00
2018-07-26T03:35:27.508Z,804.00
2018-07-26T03:36:27.388Z,806.00
2018-07-26T03:37:29.088Z,807.00
2018-07-26T03:38:29.956Z,807.00
2018-07-26T03:39:29.658Z,805.00
2018-07-26T03:40:31.464Z,805.00
2018-07-26T03:41:32.266Z,806.00
2018-07-26T03:42:33.117Z,805.00
2018-07-26T03:43:32.847Z,805.00
2018-07-26T03:44:33.617Z,807.00
2018-07-26T03:45:35.405Z,806.00
2018-07-26T03:46:36.185Z,806.00
2018-07-26T03:47:36.964Z,805.00
2018-07-26T03:48:37.742Z,805.00
2018-07-26T03:49:38.523Z,806.00
2018-07-26T03:50:39.327Z,806.00
2018-07-26T03:51:40.188Z,806.00
2018-07-26T03:52:39.930Z,805.00
2018-07-26T03:53:40.669Z,806.00
2018-07-26T03:54:43.443Z,806.00
2018-07-26T03:55:43.249Z,806.00
2018-07-26T03:56:43.025Z,806.00
2018-07-26T03:57:44.848Z,806.00
2018-07-26T03:58:44.579Z,807.00
2018-07-26T03:59:46.356Z,807.00
2018-07-26T04:00:47.163Z,806.00
2018-07-26T04:01:47.932Z,799.00
2018-07-26T04:02:48.711Z,806.00
2018-07-26T04:03:49.489Z,804.00
2018-07-26T04:04:50.265Z,807.00
2018-07-26T04:05:51.069Z,802.00
2018-07-26T04:06:51.848Z,806.00
2018-07-26T04:07:52.629Z,805.00
2018-07-26T04:08:53.403Z,806.00
2018-07-26T04:09:54.182Z,806.00
2018-07-26T04:10:54.993Z,807.00
2018-07-26T04:11:55.765Z,809.00
2018-07-26T04:12:56.544Z,807.00
2018-07-26T04:13:57.340Z,807.00
2018-07-26T04:14:57.093Z,806.00
2018-07-26T04:15:58.917Z,806.00
2018-07-26T04:16:59.686Z,807.00
2018-07-26T04:18:00.469Z,810.00
2018-07-26T04:19:01.240Z,806.00
2018-07-26T04:20:02.038Z,806.00
2018-07-26T04:21:01.823Z,807.00
2018-07-26T04:22:03.593Z,802.00
2018-07-26T04:23:04.380Z,809.00
2018-07-26T04:24:05.158Z,806.00
2018-07-26T04:25:05.939Z,806.00
2018-07-26T04:26:06.763Z,805.00
2018-07-26T04:27:06.512Z,806.00
2018-07-26T04:28:08.294Z,807.00
2018-07-26T04:29:09.063Z,805.00
2018-07-26T04:30:09.843Z,805.00
2018-07-26T04:31:10.654Z,805.00
2018-07-26T04:32:11.485Z,804.00
2018-07-26T04:33:11.209Z,807.00
2018-07-26T04:34:12.979Z,805.00
2018-07-26T04:35:13.758Z,804.00
2018-07-26T04:36:14.557Z,805.00
2018-07-26T04:37:15.344Z,804.00
2018-07-26T04:38:16.108Z,806.00
2018-07-26T04:39:16.892Z,802.00
2018-07-26T04:40:17.665Z,804.00
2018-07-26T04:41:18.571Z,802.00
2018-07-26T04:42:18.711Z,799.00
2018-07-26T04:43:19.970Z,804.00
2018-07-26T04:44:19.236Z,800.00
2018-07-26T04:45:25.682Z,806.00
2018-07-26T04:46:27.487Z,800.00
2018-07-26T04:47:28.259Z,801.00
2018-07-26T04:48:29.042Z,797.00
2018-07-26T04:49:29.811Z,796.00
2018-07-26T04:50:30.592Z,796.00
2018-07-26T04:51:31.400Z,794.00
2018-07-26T04:52:32.175Z,794.00
2018-07-26T04:53:32.963Z,792.00
2018-07-26T04:54:33.743Z,792.00
2018-07-26T04:55:33.503Z,787.00
2018-07-26T04:56:35.313Z,788.00
2018-07-26T04:57:35.088Z,787.00
2018-07-26T04:58:36.872Z,784.00
2018-07-26T04:59:37.650Z,784.00
2018-07-26T05:00:38.441Z,781.00
2018-07-26T05:01:39.241Z,781.00
2018-07-26T05:02:40.020Z,780.00
2018-07-26T05:03:40.790Z,777.00
2018-07-26T05:04:41.567Z,776.00
2018-07-26T05:05:42.354Z,774.00
2018-07-26T05:06:43.162Z,774.00
2018-07-26T05:07:43.945Z,780.00
2018-07-26T05:08:44.711Z,773.00
2018-07-26T05:09:45.490Z,773.00
2018-07-26T05:10:46.270Z,771.00
2018-07-26T05:11:47.094Z,771.00
2018-07-26T05:12:47.859Z,771.00
2018-07-26T05:13:48.640Z,768.00
2018-07-26T05:14:49.405Z,770.00
2018-07-26T05:15:50.184Z,769.00
2018-07-26T05:16:50.985Z,770.00
2018-07-26T05:17:51.768Z,774.00
2018-07-26T05:18:52.541Z,766.00
2018-07-26T05:19:53.319Z,768.00
2018-07-26T05:20:55.093Z,765.00
2018-07-26T05:21:55.242Z,766.00
2018-07-26T05:22:55.017Z,769.00
2018-07-26T05:23:55.801Z,762.00
2018-07-26T05:24:56.569Z,763.00
2018-07-26T05:25:57.352Z,759.00
2018-07-26T05:26:58.151Z,761.00
2018-07-26T05:27:58.926Z,761.00
2018-07-26T05:28:59.748Z,759.00
2018-07-26T05:30:00.520Z,763.00
2018-07-26T05:31:01.291Z,756.00
2018-07-26T05:32:02.111Z,756.00
2018-07-26T05:33:01.870Z,756.00
2018-07-26T05:34:03.697Z,754.00
2018-07-26T05:35:03.427Z,759.00
2018-07-26T05:36:05.225Z,753.00
2018-07-26T05:37:06.018Z,753.00
2018-07-26T05:38:06.796Z,751.00
2018-07-26T05:39:07.590Z,749.00
2018-07-26T05:40:08.357Z,749.00
2018-07-26T05:41:09.115Z,748.00
2018-07-26T05:42:09.922Z,749.00
2018-07-26T05:43:10.734Z,748.00
2018-07-26T05:44:10.481Z,746.00
2018-07-26T05:45:12.255Z,747.00
2018-07-26T05:46:13.033Z,745.00
2018-07-26T05:47:13.846Z,746.00
2018-07-26T05:48:14.624Z,745.00
2018-07-26T05:49:15.397Z,741.00
2018-07-26T05:50:16.185Z,741.00
2018-07-26T05:51:16.946Z,739.00
2018-07-26T05:52:17.760Z,737.00
2018-07-26T05:53:18.560Z,738.00
2018-07-26T05:54:18.313Z,735.00
2018-07-26T05:55:20.084Z,736.00
2018-07-26T05:56:20.866Z,733.00
2018-07-26T05:57:21.670Z,734.00
2018-07-26T05:58:22.538Z,738.00
2018-07-26T05:59:22.240Z,729.00
2018-07-26T06:00:24.015Z,728.00
2018-07-26T06:01:24.795Z,727.00
2018-07-26T06:02:25.595Z,726.00
2018-07-26T06:03:26.382Z,727.00
2018-07-26T06:04:27.155Z,730.00
2018-07-26T06:05:27.955Z,721.00
2018-07-26T06:06:28.717Z,723.00
2018-07-26T06:07:29.532Z,722.00
2018-07-26T06:08:30.304Z,722.00
2018-07-26T06:09:31.088Z,720.00
2018-07-26T06:10:31.862Z,720.00
2018-07-26T06:11:32.643Z,720.00
2018-07-26T06:12:33.453Z,720.00
2018-07-26T06:13:34.233Z,720.00
2018-07-26T06:14:36.006Z,717.00
2018-07-26T06:15:35.781Z,718.00
2018-07-26T06:16:36.574Z,716.00
2018-07-26T06:17:37.374Z,722.00
2018-07-26T06:18:37.160Z,715.00
2018-07-26T06:19:38.929Z,713.00
2018-07-26T06:20:39.729Z,712.00
2018-07-26T06:21:39.479Z,710.00
2018-07-26T06:22:41.285Z,711.00
2018-07-26T06:23:42.071Z,712.00
2018-07-26T06:24:42.857Z,710.00
2018-07-26T06:25:43.633Z,708.00
2018-07-26T06:26:44.433Z,710.00
2018-07-26T06:27:44.214Z,708.00
2018-07-26T06:28:45.985Z,711.00
2018-07-26T06:29:46.762Z,708.00
2018-07-26T06:30:47.539Z,710.00
2018-07-26T06:31:48.322Z,709.00
2018-07-26T06:32:49.155Z,710.00
2018-07-26T06:33:49.988Z,710.00
2018-07-26T06:34:49.689Z,709.00
2018-07-26T06:35:51.462Z,709.00
2018-07-26T06:36:52.231Z,711.00
2018-07-26T06:37:53.036Z,720.00
2018-07-26T06:38:53.828Z,710.00
2018-07-26T06:39:54.618Z,710.00
2018-07-26T06:40:55.387Z,710.00
2018-07-26T06:41:56.593Z,709.00
2018-07-26T06:42:56.922Z,710.00
2018-07-26T06:46:08.263Z,720.00
2018-07-26T06:47:10.058Z,710.00
2018-07-26T06:48:09.864Z,709.00
2018-07-26T06:49:11.629Z,718.00
2018-07-26T06:50:12.398Z,709.00
2018-07-26T06:51:13.176Z,710.00
2018-07-26T06:52:14.034Z,709.00
2018-07-26T06:53:13.765Z,710.00
2018-07-26T06:54:15.541Z,711.00
2018-07-26T06:55:16.322Z,710.00
2018-07-26T06:56:17.099Z,712.00
2018-07-26T06:57:17.875Z,722.00
2018-07-26T06:58:18.696Z,711.00
2018-07-26T06:59:19.466Z,712.00
2018-07-26T07:00:20.245Z,711.00
2018-07-26T07:01:21.017Z,711.00
2018-07-26T07:02:21.794Z,710.00
2018-07-26T07:03:22.594Z,712.00
2018-07-26T07:04:23.372Z,711.00
2018-07-26T07:05:24.147Z,710.00
2018-07-26T07:06:25.920Z,708.00
2018-07-26T07:07:25.697Z,710.00
2018-07-26T07:08:26.521Z,708.00
2018-07-26T07:09:27.286Z,710.00
2018-07-26T07:10:28.069Z,709.00
2018-07-26T07:11:28.840Z,709.00
2018-07-26T07:12:29.619Z,709.00
2018-07-26T07:13:30.424Z,710.00
2018-07-26T07:14:31.203Z,712.00
2018-07-26T07:15:31.994Z,710.00
2018-07-26T07:16:32.764Z,711.00
2018-07-26T07:17:33.546Z,711.00
2018-07-26T07:18:34.392Z,712.00
2018-07-26T07:19:34.137Z,715.00
2018-07-26T07:20:36.974Z,713.00
2018-07-26T07:21:35.693Z,716.00
2018-07-26T07:22:37.472Z,715.00
2018-07-26T07:23:38.272Z,717.00
2018-07-26T07:24:39.045Z,720.00
2018-07-26T07:25:39.845Z,720.00
2018-07-26T07:26:40.613Z,730.00
2018-07-26T07:27:41.532Z,721.00
2018-07-26T07:28:41.200Z,721.00
2018-07-26T07:29:42.979Z,725.00
2018-07-26T07:30:43.755Z,725.00
2018-07-26T07:31:44.532Z,727.00
2018-07-26T07:32:45.308Z,728.00
2018-07-26T07:33:46.114Z,730.00
2018-07-26T07:34:46.897Z,742.00
2018-07-26T07:35:47.668Z,732.00
2018-07-26T07:36:48.445Z,734.00
2018-07-26T07:37:49.218Z,735.00
2018-07-26T07:38:50.024Z,735.00
2018-07-26T07:39:50.802Z,739.00
2018-07-26T07:40:51.588Z,737.00
2018-07-26T07:41:52.374Z,738.00
2018-07-26T07:42:53.137Z,739.00
2018-07-26T07:43:53.945Z,740.00
2018-07-26T07:44:54.725Z,742.00
2018-07-26T07:45:55.496Z,745.00
2018-07-26T07:46:56.274Z,745.00
2018-07-26T07:47:57.057Z,756.00
2018-07-26T07:48:57.857Z,746.00
2018-07-26T07:49:58.635Z,748.00
2018-07-26T07:50:59.413Z,746.00
2018-07-26T07:52:00.203Z,748.00
2018-07-26T07:53:00.985Z,746.00
2018-07-26T07:54:00.790Z,749.00
2018-07-26T07:55:02.653Z,759.00
2018-07-26T07:56:02.356Z,749.00
2018-07-26T07:57:04.131Z,749.00
2018-07-26T07:58:04.909Z,749.00
2018-07-26T07:59:05.738Z,751.00
2018-07-26T08:00:06.501Z,762.00
2018-07-26T08:01:07.271Z,749.00
2018-07-26T08:02:08.065Z,749.00
2018-07-26T08:03:08.827Z,752.00
2018-07-26T08:04:09.632Z,753.00
2018-07-26T08:05:10.418Z,756.00
2018-07-26T08:06:11.195Z,751.00
2018-07-26T08:07:11.975Z,751.00
2018-07-26T08:08:12.745Z,752.00
2018-07-26T08:09:13.550Z,751.00
2018-07-26T08:10:14.326Z,753.00
2018-07-26T08:11:15.145Z,753.00
2018-07-26T08:12:14.881Z,754.00
2018-07-26T08:13:16.655Z,751.00
2018-07-26T08:14:17.480Z,754.00
2018-07-26T08:15:18.250Z,756.00
2018-07-26T08:16:19.027Z,754.00
2018-07-26T08:17:19.806Z,754.00
2018-07-26T08:18:20.590Z,753.00
2018-07-26T08:19:21.403Z,765.00
2018-07-26T08:20:22.177Z,754.00
2018-07-26T08:21:22.986Z,753.00
2018-07-26T08:22:22.728Z,753.00
2018-07-26T08:23:24.506Z,753.00
2018-07-26T08:24:25.331Z,754.00
2018-07-26T08:25:26.106Z,756.00
2018-07-26T08:26:26.884Z,753.00
2018-07-26T08:27:27.668Z,754.00
2018-07-26T08:28:28.447Z,754.00
2018-07-26T08:29:29.277Z,754.00
2018-07-26T08:30:29.029Z,756.00
2018-07-26T08:31:30.801Z,753.00
2018-07-26T08:32:31.618Z,757.00
2018-07-26T08:33:31.355Z,756.00
2018-07-26T08:34:33.157Z,772.00
